Terminal Aerodrome Forecast
Issued by NWS Cleveland, OH

Home | Current Version | Previous Version | Graphics & Text | Print | Product List | Glossary Off
Versions: 1 2 3 4 5 6 7 8 9 10 11 12 13 14 15 16 17 18 19 20 21 22 23 24 25

000
FTUS41 KCLE 010341 AAB
TAFTOL
TAF AMD
KTOL 010341Z 0104/0124 09004KT P6SM BKN040
     FM010430 09004KT 6SM -SHRA BKN015 OVC035
      TEMPO 0105/0108 4SM -RA BR OVC007
     FM010800 07004KT 4SM BR OVC006
     FM011500 15006KT P6SM VCSH BKN018 OVC035
     FM011900 18005KT P6SM BKN040=

USA.gov is the U.S. government's official web portal to all federal, state and local government web resources and services.